Ballonweer?

Available data for EHGG from the past 2 hours
GRONINGEN/EELDE
Metar
EHGG 120655Z AUTO VRB01KT 9999 NCD 00/M00 Q1026 TEMPO 4000 BR

06:55 UTC

Wind: ° 1kt

Visibility: 9999 m

Sky:

Temp: 0 deg C / 32 deg F

Dewpoint: 0 deg C / 32 deg F

Pressure: 1026 hPa

TAF
TAF EHGG 120501Z 1206/1312 08004KT 9999 BKN030 BECMG 1221/1224 6000 BKN012 PROB40 1300/1309 4000 BR BKN009 BECMG 1308/1311 9999

Buienradar (tot 2 uur vooruit)

 

KNMI weerbulletin kleine luchtvaart

Klik hier om het weerbulletin te openen in een nieuw tabblad.